createdAt,value
2022-10-05T00:01:25.050Z,90.54
2022-10-05T00:03:53.097Z,90.14
2022-10-05T00:06:19.586Z,90.04
2022-10-05T00:08:46.151Z,90.17
2022-10-05T00:11:16.683Z,91.46
2022-10-05T00:13:43.267Z,91.32
2022-10-05T00:16:16.184Z,91.07
2022-10-05T00:18:45.135Z,90.75
2022-10-05T00:21:22.992Z,90.92
2022-10-05T00:23:49.841Z,90.34
2022-10-05T00:26:18.663Z,89.69
2022-10-05T00:28:45.120Z,90.32
2022-10-05T00:31:19.959Z,90.88
2022-10-05T00:33:46.930Z,90.79
2022-10-05T00:36:13.666Z,90.64
2022-10-05T00:38:40.738Z,90.35
2022-10-05T00:41:16.617Z,89.89
2022-10-05T00:43:51.350Z,89.61
2022-10-05T00:46:26.163Z,90.52
2022-10-05T00:49:05.450Z,91.57
2022-10-05T00:51:35.846Z,92.35
2022-10-05T00:54:08.466Z,91.95
2022-10-05T00:57:01.210Z,91.35
2022-10-05T00:59:33.923Z,91.09
2022-10-05T01:02:06.841Z,92.02
2022-10-05T01:04:51.827Z,91.91
2022-10-05T01:07:32.028Z,92.06
2022-10-05T01:10:09.543Z,92.45
2022-10-05T01:12:55.034Z,91.79
2022-10-05T01:15:31.422Z,91.22
2022-10-05T01:18:00.725Z,91.32
2022-10-05T01:20:50.541Z,90.71
2022-10-05T01:23:26.123Z,91.56
2022-10-05T01:25:52.578Z,91.50
2022-10-05T01:28:31.364Z,91.78
2022-10-05T01:30:57.873Z,92.07
2022-10-05T01:33:43.086Z,93.20
2022-10-05T01:36:27.295Z,92.26
2022-10-05T01:38:59.756Z,92.65
2022-10-05T01:41:48.769Z,92.20
2022-10-05T01:44:20.983Z,93.11
2022-10-05T01:47:17.014Z,93.28
2022-10-05T01:50:00.041Z,93.74
2022-10-05T01:52:29.474Z,93.13
2022-10-05T01:55:12.966Z,92.30
2022-10-05T01:57:49.002Z,93.45
2022-10-05T02:00:17.951Z,94.42
2022-10-05T02:03:02.486Z,93.78
2022-10-05T02:05:44.994Z,93.39
2022-10-05T02:08:17.706Z,93.40
2022-10-05T02:10:44.584Z,92.69
2022-10-05T02:13:29.502Z,92.03
2022-10-05T02:16:01.660Z,93.14
2022-10-05T02:18:30.386Z,93.26
2022-10-05T02:21:00.784Z,92.88
2022-10-05T02:23:32.754Z,92.73
2022-10-05T02:26:00.886Z,92.08
2022-10-05T02:28:33.723Z,92.05
2022-10-05T02:31:11.809Z,91.50
2022-10-05T02:33:38.666Z,92.43
2022-10-05T02:36:14.649Z,92.30
2022-10-05T02:38:47.997Z,91.92
2022-10-05T02:41:33.641Z,92.21
2022-10-05T02:44:09.236Z,92.28
2022-10-05T02:46:41.708Z,91.76
2022-10-05T02:49:09.302Z,91.77
2022-10-05T02:51:45.069Z,91.72
2022-10-05T02:54:29.980Z,91.10
2022-10-05T02:56:59.459Z,91.96
2022-10-05T02:59:38.004Z,92.02
2022-10-05T03:02:15.560Z,92.80
2022-10-05T03:04:58.754Z,92.28
2022-10-05T03:07:34.984Z,92.44
2022-10-05T03:10:06.280Z,92.13
2022-10-05T03:12:39.888Z,92.31
2022-10-05T03:15:06.794Z,92.56
2022-10-05T03:17:45.916Z,93.06
2022-10-05T03:20:24.099Z,93.64
2022-10-05T03:22:54.470Z,93.91
2022-10-05T03:25:31.635Z,94.14
2022-10-05T03:28:03.491Z,93.07
2022-10-05T03:30:35.343Z,92.95
2022-10-05T03:33:17.387Z,92.99
2022-10-05T03:35:53.321Z,93.00
2022-10-05T03:38:31.949Z,92.23
2022-10-05T03:40:58.480Z,92.61
2022-10-05T03:43:29.326Z,92.39
2022-10-05T03:45:58.651Z,93.75
2022-10-05T03:48:48.463Z,93.29
2022-10-05T03:51:18.106Z,93.39
2022-10-05T03:53:48.970Z,93.59
2022-10-05T03:56:19.677Z,94.49
2022-10-05T03:58:53.489Z,94.65
2022-10-05T04:01:22.643Z,93.43
2022-10-05T04:03:57.154Z,92.87
2022-10-05T04:06:44.283Z,92.67
2022-10-05T04:09:15.260Z,93.22
2022-10-05T04:11:50.921Z,93.45
2022-10-05T04:14:21.606Z,93.67
2022-10-05T04:16:52.410Z,94.29
2022-10-05T04:19:24.565Z,93.89
2022-10-05T04:21:55.218Z,93.66
2022-10-05T04:24:26.198Z,93.18
2022-10-05T04:26:58.779Z,93.02
2022-10-05T04:29:33.725Z,93.16
2022-10-05T04:32:05.955Z,93.27
2022-10-05T04:34:38.719Z,92.83
2022-10-05T04:37:08.589Z,93.22
2022-10-05T04:39:45.613Z,93.12
2022-10-05T04:42:30.966Z,92.83
2022-10-05T04:45:00.819Z,92.85
2022-10-05T04:47:35.329Z,92.96
2022-10-05T04:50:20.711Z,92.97
2022-10-05T04:53:00.171Z,92.53
2022-10-05T04:55:45.297Z,92.86
2022-10-05T04:58:24.591Z,92.71
2022-10-05T05:01:03.421Z,93.90
2022-10-05T05:03:38.942Z,93.88
2022-10-05T05:06:17.821Z,92.59
2022-10-05T05:08:51.358Z,94.31
2022-10-05T05:11:40.762Z,93.87
2022-10-05T05:14:13.453Z,94.00
2022-10-05T05:16:41.454Z,93.03
2022-10-05T05:19:30.530Z,93.91
2022-10-05T05:22:07.378Z,94.35
2022-10-05T05:24:43.718Z,94.50
2022-10-05T05:27:29.243Z,94.05
2022-10-05T05:30:04.338Z,94.75
2022-10-05T05:32:46.648Z,95.83
2022-10-05T05:35:24.999Z,95.19
2022-10-05T05:38:10.916Z,93.94
2022-10-05T05:40:44.509Z,94.18
2022-10-05T05:43:29.603Z,93.73
2022-10-05T05:46:01.055Z,94.19
2022-10-05T05:48:29.152Z,94.41
2022-10-05T05:51:14.981Z,94.58
2022-10-05T05:53:46.143Z,94.44
2022-10-05T05:56:14.277Z,93.53
2022-10-05T05:58:54.631Z,93.18
2022-10-05T06:01:34.217Z,93.93
2022-10-05T06:04:24.934Z,95.11
2022-10-05T06:06:53.205Z,94.46
2022-10-05T06:09:26.720Z,95.52
2022-10-05T06:12:16.732Z,96.19
2022-10-05T06:14:46.023Z,95.45
2022-10-05T06:17:19.221Z,94.20
2022-10-05T06:19:46.687Z,93.90
2022-10-05T06:22:19.838Z,93.72
2022-10-05T06:24:58.643Z,91.90
2022-10-05T06:27:39.249Z,89.52
2022-10-05T06:30:15.159Z,87.44
2022-10-05T06:32:50.781Z,84.77
2022-10-05T06:35:33.179Z,81.40
2022-10-05T06:38:05.822Z,80.96
2022-10-05T06:40:51.119Z,77.22
2022-10-05T06:43:24.793Z,76.88
2022-10-05T06:46:32.688Z,73.13
2022-10-05T06:49:45.566Z,73.31
2022-10-05T06:52:38.123Z,72.44
2022-10-05T06:55:14.336Z,70.05
2022-10-05T06:58:00.189Z,71.35
2022-10-05T07:00:39.071Z,72.35
2022-10-05T07:03:25.872Z,71.00
2022-10-05T07:05:59.041Z,68.86
2022-10-05T07:08:46.822Z,68.37
2022-10-05T07:11:23.118Z,66.97
2022-10-05T07:14:13.229Z,68.26
2022-10-05T07:16:52.603Z,66.10
2022-10-05T07:19:29.212Z,67.74
2022-10-05T07:21:58.799Z,63.69
2022-10-05T07:24:30.567Z,64.44
2022-10-05T07:27:13.174Z,64.71
2022-10-05T07:29:52.516Z,62.55
2022-10-05T07:32:38.007Z,62.83
2022-10-05T07:35:04.868Z,62.04
2022-10-05T07:37:53.242Z,62.83
2022-10-05T07:40:32.651Z,61.56
2022-10-05T07:43:03.290Z,60.28
2022-10-05T07:45:44.446Z,61.22
2022-10-05T07:48:20.633Z,60.22
2022-10-05T07:50:58.679Z,56.41
2022-10-05T07:53:35.044Z,54.48
2022-10-05T07:56:10.355Z,56.52
2022-10-05T07:58:43.298Z,57.74
2022-10-05T08:01:13.045Z,55.81
2022-10-05T08:03:49.437Z,54.53
2022-10-05T08:06:28.906Z,54.80
2022-10-05T08:08:57.336Z,55.04
2022-10-05T08:11:44.333Z,56.10
2022-10-05T08:14:20.371Z,54.12
2022-10-05T08:16:48.478Z,54.15
2022-10-05T08:19:15.234Z,53.28
2022-10-05T08:21:45.231Z,52.77
2022-10-05T08:24:11.951Z,54.06
2022-10-05T08:26:49.866Z,56.00
2022-10-05T08:29:42.362Z,54.28
2022-10-05T08:32:14.944Z,55.04
2022-10-05T08:34:47.410Z,53.57
2022-10-05T08:37:18.940Z,52.15
2022-10-05T08:40:03.798Z,51.39
2022-10-05T08:42:39.354Z,51.18
2022-10-05T08:45:26.835Z,52.25
2022-10-05T08:48:01.563Z,50.10
2022-10-05T08:50:43.020Z,51.61
2022-10-05T08:53:37.955Z,50.19
2022-10-05T08:56:27.797Z,51.54
2022-10-05T08:59:24.254Z,50.66
2022-10-05T09:02:08.314Z,49.33
2022-10-05T09:04:53.531Z,50.34
2022-10-05T09:07:37.939Z,49.76
2022-10-05T09:10:13.503Z,50.35
2022-10-05T09:12:46.049Z,49.16
2022-10-05T09:15:31.260Z,48.87
2022-10-05T09:18:07.215Z,47.10
2022-10-05T09:20:48.288Z,45.63
2022-10-05T09:23:27.090Z,46.26
2022-10-05T09:25:56.643Z,47.01
2022-10-05T09:28:25.109Z,46.54
2022-10-05T09:30:58.889Z,47.08
2022-10-05T09:33:44.195Z,47.01
2022-10-05T09:36:30.520Z,47.81
2022-10-05T09:39:16.170Z,45.84
2022-10-05T09:41:46.463Z,45.37
2022-10-05T09:44:13.311Z,46.54
2022-10-05T09:46:45.927Z,47.37
2022-10-05T09:49:18.126Z,46.96
2022-10-05T09:52:03.661Z,45.32
2022-10-05T09:54:48.850Z,43.39
2022-10-05T09:57:15.259Z,43.50
2022-10-05T09:59:42.210Z,44.38
2022-10-05T10:02:18.428Z,44.08
2022-10-05T10:05:05.683Z,44.24
2022-10-05T10:07:50.951Z,43.90
2022-10-05T10:10:36.257Z,43.17
2022-10-05T10:13:14.799Z,44.19
2022-10-05T10:16:03.573Z,45.91
2022-10-05T10:18:53.163Z,46.60
2022-10-05T10:21:34.946Z,44.53
2022-10-05T10:24:04.460Z,44.95
2022-10-05T10:26:44.787Z,43.20
2022-10-05T10:29:30.402Z,42.26
2022-10-05T10:31:59.910Z,40.68
2022-10-05T10:34:45.351Z,39.70
2022-10-05T10:37:30.782Z,40.35
2022-10-05T10:40:15.858Z,42.18
2022-10-05T10:43:05.546Z,43.98
2022-10-05T10:45:45.398Z,40.83
2022-10-05T10:48:11.866Z,42.27
2022-10-05T10:50:52.528Z,42.79
2022-10-05T10:53:37.334Z,41.54
2022-10-05T10:56:10.142Z,40.85
2022-10-05T10:58:59.669Z,38.82
2022-10-05T11:01:26.135Z,41.79
2022-10-05T11:04:11.415Z,44.26
2022-10-05T11:06:56.653Z,40.44
2022-10-05T11:09:54.743Z,40.10
2022-10-05T11:12:59.575Z,37.41
2022-10-05T11:15:28.600Z,38.01
2022-10-05T11:17:58.190Z,38.55
2022-10-05T11:20:33.961Z,37.29
2022-10-05T11:23:03.347Z,37.44
2022-10-05T11:25:38.302Z,37.09
2022-10-05T11:28:19.691Z,35.93
2022-10-05T11:31:04.994Z,39.72
2022-10-05T11:33:34.419Z,38.12
2022-10-05T11:36:21.336Z,38.14
2022-10-05T11:39:13.791Z,36.09
2022-10-05T11:41:58.586Z,36.07
2022-10-05T11:44:45.166Z,35.73
2022-10-05T11:47:11.610Z,38.48
2022-10-05T11:49:50.010Z,38.31
2022-10-05T11:52:16.833Z,38.46
2022-10-05T11:55:11.289Z,38.25
2022-10-05T11:57:43.117Z,40.60
2022-10-05T12:00:12.845Z,38.59
2022-10-05T12:02:45.663Z,42.21
2022-10-05T12:05:21.166Z,41.43
2022-10-05T12:07:50.330Z,40.90
2022-10-05T12:10:21.636Z,40.55
2022-10-05T12:13:04.578Z,40.91
2022-10-05T12:15:37.263Z,41.87
2022-10-05T12:18:13.490Z,40.31
2022-10-05T12:20:54.145Z,40.13
2022-10-05T12:23:28.111Z,42.63
2022-10-05T12:25:57.610Z,41.04
2022-10-05T12:28:29.951Z,41.20
2022-10-05T12:31:02.609Z,41.19
2022-10-05T12:33:38.205Z,42.08
2022-10-05T12:36:14.134Z,44.22
2022-10-05T12:38:40.603Z,43.05
2022-10-05T12:41:14.307Z,41.40
2022-10-05T12:43:47.087Z,41.76
2022-10-05T12:46:20.195Z,42.52
2022-10-05T12:48:56.018Z,41.06
2022-10-05T12:51:31.791Z,41.75
2022-10-05T12:53:58.196Z,41.43
2022-10-05T12:56:44.742Z,41.98
2022-10-05T12:59:18.031Z,39.90
2022-10-05T13:01:59.771Z,39.17
2022-10-05T13:04:33.001Z,38.64
2022-10-05T13:07:08.081Z,38.89
2022-10-05T13:09:37.627Z,39.27
2022-10-05T13:12:12.145Z,38.71
2022-10-05T13:14:58.821Z,39.04
2022-10-05T13:17:39.264Z,40.41
2022-10-05T13:20:37.951Z,39.88
2022-10-05T13:23:19.161Z,40.07
2022-10-05T13:26:08.813Z,40.03
2022-10-05T13:28:41.470Z,40.85
2022-10-05T13:31:24.648Z,40.38
2022-10-05T13:33:58.389Z,40.72
2022-10-05T13:36:31.391Z,41.54
2022-10-05T13:39:03.694Z,41.61
2022-10-05T13:41:48.542Z,43.17
2022-10-05T13:44:24.065Z,44.91
2022-10-05T13:47:01.084Z,45.65
2022-10-05T13:52:20.411Z,47.61
2022-10-05T13:55:09.857Z,47.56
2022-10-05T13:57:58.780Z,48.03
2022-10-05T14:00:27.001Z,47.90
2022-10-05T14:02:54.973Z,47.60
2022-10-05T14:05:21.490Z,47.45
2022-10-05T14:07:50.183Z,46.90
2022-10-05T14:10:29.258Z,47.25
2022-10-05T14:12:55.790Z,46.58
2022-10-05T14:15:28.061Z,47.55
2022-10-05T14:17:54.720Z,46.23
2022-10-05T14:20:28.822Z,46.22
2022-10-05T14:23:00.390Z,46.06
2022-10-05T14:25:27.933Z,45.98
2022-10-05T14:27:57.147Z,46.69
2022-10-05T14:30:25.669Z,46.17
2022-10-05T14:32:55.781Z,46.30
2022-10-05T14:35:25.329Z,46.58
2022-10-05T14:38:00.404Z,47.25
2022-10-05T14:40:28.858Z,48.03
2022-10-05T14:42:56.256Z,46.68
2022-10-05T14:45:25.049Z,46.52
2022-10-05T14:47:53.359Z,47.85
2022-10-05T14:50:29.663Z,48.15
2022-10-05T14:53:11.284Z,47.23
2022-10-05T14:55:48.542Z,52.65
2022-10-05T14:58:15.169Z,52.90
2022-10-05T15:00:51.576Z,55.68
2022-10-05T15:03:27.300Z,58.73
2022-10-05T15:05:55.686Z,61.40
2022-10-05T15:08:24.860Z,60.67
2022-10-05T15:10:56.594Z,62.42
2022-10-05T15:13:30.570Z,62.35
2022-10-05T15:16:00.694Z,61.99
2022-10-05T15:18:39.827Z,62.79
2022-10-05T15:21:09.957Z,66.61
2022-10-05T15:23:47.424Z,67.87
2022-10-05T15:26:19.735Z,67.65
2022-10-05T15:28:49.201Z,68.41
2022-10-05T15:31:37.651Z,70.55
2022-10-05T15:34:09.343Z,70.02
2022-10-05T15:36:42.944Z,68.55
2022-10-05T15:39:26.932Z,68.13
2022-10-05T15:42:00.306Z,68.91
2022-10-05T15:44:29.753Z,68.35
2022-10-05T15:46:58.643Z,68.92
2022-10-05T15:49:43.953Z,69.19
2022-10-05T15:52:28.749Z,69.50
2022-10-05T15:54:55.162Z,72.20
2022-10-05T15:57:21.545Z,72.65
2022-10-05T15:59:51.030Z,73.79
2022-10-05T16:02:26.003Z,73.38
2022-10-05T16:05:03.820Z,74.47
2022-10-05T16:07:59.280Z,74.16
2022-10-05T16:10:26.202Z,74.74
2022-10-05T16:12:55.542Z,75.31
2022-10-05T16:15:29.591Z,75.68
2022-10-05T16:17:55.976Z,75.81
2022-10-05T16:20:22.411Z,76.43
2022-10-05T16:23:03.802Z,76.22
2022-10-05T16:25:49.068Z,76.15
2022-10-05T16:28:15.529Z,76.27
2022-10-05T16:30:51.070Z,76.43
2022-10-05T16:33:23.672Z,76.14
2022-10-05T16:36:02.907Z,77.57
2022-10-05T16:38:29.381Z,77.56
2022-10-05T16:41:13.792Z,76.81
2022-10-05T16:43:44.839Z,76.62
2022-10-05T16:46:27.762Z,77.59
2022-10-05T16:48:54.507Z,79.54
2022-10-05T16:51:31.824Z,79.12
2022-10-05T16:54:18.061Z,78.16
2022-10-05T16:56:48.091Z,79.25
2022-10-05T16:59:28.578Z,79.04
2022-10-05T17:02:15.315Z,78.03
2022-10-05T17:05:01.643Z,79.09
2022-10-05T17:07:37.241Z,80.34
2022-10-05T17:10:11.604Z,79.82
2022-10-05T17:12:38.156Z,80.02
2022-10-05T17:15:14.888Z,81.52
2022-10-05T17:18:19.937Z,81.43
2022-10-05T17:21:07.837Z,80.43
2022-10-05T17:23:34.336Z,80.60
2022-10-05T17:26:10.216Z,81.57
2022-10-05T17:28:38.859Z,81.24
2022-10-05T17:31:08.493Z,81.35
2022-10-05T17:33:55.189Z,82.28
2022-10-05T17:36:21.608Z,80.82
2022-10-05T17:39:12.263Z,80.21
2022-10-05T17:41:38.834Z,80.73
2022-10-05T17:44:16.195Z,80.24
2022-10-05T17:46:46.033Z,80.94
2022-10-05T17:49:15.519Z,82.12
2022-10-05T17:52:00.659Z,81.76
2022-10-05T17:54:49.806Z,81.32
2022-10-05T17:57:19.849Z,81.40
2022-10-05T17:59:56.815Z,81.48
2022-10-05T18:02:36.360Z,82.79
2022-10-05T18:05:04.016Z,83.63
2022-10-05T18:07:31.592Z,83.01
2022-10-05T18:09:59.482Z,82.63
2022-10-05T18:12:40.167Z,82.12
2022-10-05T18:15:06.574Z,82.42
2022-10-05T18:17:36.034Z,82.39
2022-10-05T18:20:13.192Z,82.66
2022-10-05T18:22:39.717Z,82.59
2022-10-05T18:25:10.133Z,83.54
2022-10-05T18:28:03.982Z,82.60
2022-10-05T18:30:32.611Z,83.49
2022-10-05T18:33:08.211Z,83.61
2022-10-05T18:35:46.994Z,83.70
2022-10-05T18:38:13.581Z,84.12
2022-10-05T18:40:46.038Z,84.34
2022-10-05T18:43:29.039Z,84.28
2022-10-05T18:46:05.189Z,84.02
2022-10-05T18:48:35.618Z,84.46
2022-10-05T18:51:08.210Z,83.97
2022-10-05T18:53:41.101Z,84.36
2022-10-05T18:56:30.076Z,84.91
2022-10-05T18:59:14.824Z,85.22
2022-10-05T19:01:50.627Z,85.10
2022-10-05T19:04:29.322Z,85.62
2022-10-05T19:06:58.786Z,85.70
2022-10-05T19:09:25.176Z,85.91
2022-10-05T19:12:01.251Z,86.44
2022-10-05T19:14:27.702Z,87.14
2022-10-05T19:17:03.298Z,86.76
2022-10-05T19:19:38.561Z,86.45
2022-10-05T19:22:05.007Z,86.94
2022-10-05T19:24:41.659Z,87.20
2022-10-05T19:27:13.685Z,86.87
2022-10-05T19:29:49.229Z,88.33
2022-10-05T19:32:15.680Z,88.77
2022-10-05T19:34:42.247Z,90.10
2022-10-05T19:37:15.599Z,89.27
2022-10-05T19:39:47.995Z,88.62
2022-10-05T19:42:17.579Z,89.25
2022-10-05T19:44:47.740Z,88.74
2022-10-05T19:47:32.281Z,88.28
2022-10-05T19:49:59.626Z,88.11
2022-10-05T19:52:40.665Z,89.33
2022-10-05T19:55:13.251Z,88.68
2022-10-05T19:57:46.134Z,88.53
2022-10-05T20:00:19.805Z,88.23
2022-10-05T20:02:46.725Z,88.81
2022-10-05T20:05:13.691Z,89.11
2022-10-05T20:07:41.008Z,89.48
2022-10-05T20:10:29.225Z,89.53
2022-10-05T20:12:59.774Z,89.85
2022-10-05T20:15:46.075Z,91.12
2022-10-05T20:18:50.172Z,90.29
2022-10-05T20:21:37.081Z,90.19
2022-10-05T20:24:11.348Z,91.28
2022-10-05T20:27:01.096Z,92.01
2022-10-05T20:29:37.446Z,91.14
2022-10-05T20:32:08.112Z,90.92
2022-10-05T20:34:35.257Z,90.63
2022-10-05T20:37:01.657Z,91.52
2022-10-05T20:39:28.110Z,91.33
2022-10-05T20:41:54.574Z,91.21
2022-10-05T20:44:21.021Z,90.65
2022-10-05T20:46:48.166Z,91.05
2022-10-05T20:49:14.663Z,91.48
2022-10-05T20:51:41.178Z,92.22
2022-10-05T20:54:07.909Z,92.20
2022-10-05T20:56:34.402Z,91.61
2022-10-05T20:59:00.879Z,91.38
2022-10-05T21:01:28.877Z,90.77
2022-10-05T21:03:55.758Z,90.62
2022-10-05T21:06:22.305Z,90.96
2022-10-05T21:08:50.857Z,90.76
2022-10-05T21:11:17.337Z,90.57
2022-10-05T21:13:47.095Z,90.99
2022-10-05T21:16:18.513Z,91.07
2022-10-05T21:18:46.900Z,91.19
2022-10-05T21:21:14.802Z,91.24
2022-10-05T21:23:41.243Z,91.14
2022-10-05T21:26:08.007Z,91.49
2022-10-05T21:28:34.815Z,91.15
2022-10-05T21:31:01.404Z,91.11
2022-10-05T21:33:28.167Z,91.11
2022-10-05T21:35:54.855Z,91.89
2022-10-05T21:38:21.311Z,92.45
2022-10-05T21:40:47.746Z,93.55
2022-10-05T21:43:14.469Z,93.91
2022-10-05T21:45:41.608Z,94.13
2022-10-05T21:48:08.252Z,93.67
2022-10-05T21:50:35.105Z,93.41
2022-10-05T21:53:02.973Z,93.71
2022-10-05T21:55:29.507Z,93.33
2022-10-05T21:57:57.302Z,93.70
2022-10-05T22:00:23.766Z,93.84
2022-10-05T22:02:50.280Z,93.21
2022-10-05T22:05:16.845Z,92.95
2022-10-05T22:07:43.339Z,92.62
2022-10-05T22:10:09.843Z,93.10
2022-10-05T22:12:36.558Z,93.13
2022-10-05T22:15:05.233Z,92.50
2022-10-05T22:17:31.962Z,92.49
2022-10-05T22:19:58.981Z,93.02
2022-10-05T22:22:26.473Z,92.35
2022-10-05T22:24:53.301Z,92.31
2022-10-05T22:27:20.786Z,93.84
2022-10-05T22:29:47.359Z,94.01
2022-10-05T22:32:13.762Z,93.80
2022-10-05T22:34:40.174Z,94.27
2022-10-05T22:37:06.920Z,94.83
2022-10-05T22:39:33.374Z,93.88
2022-10-05T22:41:59.774Z,94.00
2022-10-05T22:44:26.194Z,93.61
2022-10-05T22:46:52.622Z,94.58
2022-10-05T22:49:19.461Z,94.48
2022-10-05T22:51:45.971Z,94.07
2022-10-05T22:54:12.382Z,93.70
2022-10-05T22:56:38.790Z,93.49
2022-10-05T22:59:05.250Z,93.23
2022-10-05T23:01:31.723Z,93.46
2022-10-05T23:03:58.240Z,93.55
2022-10-05T23:06:27.753Z,93.66
2022-10-05T23:08:54.755Z,94.33
2022-10-05T23:11:23.601Z,93.86
2022-10-05T23:13:52.183Z,94.47
2022-10-05T23:16:20.190Z,95.52
2022-10-05T23:18:51.114Z,97.46
2022-10-05T23:21:18.207Z,97.54
2022-10-05T23:23:49.029Z,96.60
2022-10-05T23:26:16.079Z,97.32
2022-10-05T23:28:46.559Z,97.37
2022-10-05T23:31:14.853Z,97.77
2022-10-05T23:33:41.313Z,97.73
2022-10-05T23:36:09.029Z,98.63
2022-10-05T23:38:36.068Z,98.68
2022-10-05T23:41:02.814Z,97.59
2022-10-05T23:43:29.583Z,97.91
2022-10-05T23:45:56.345Z,96.94
2022-10-05T23:48:22.887Z,96.59
2022-10-05T23:50:49.887Z,97.10
2022-10-05T23:53:16.767Z,96.72
2022-10-05T23:55:43.205Z,96.58
2022-10-05T23:58:10.034Z,97.18
